Time;durP1;ratioP1;P1;durP2;ratioP2;P2;SDS_P1;SDS_P2;PMS_P1;PMS_P2;Temp;Humidity;BMP_temperature;BMP_pressure;BME280_temperature;BME280_humidity;BME280_pressure;Samples;Min_cycle;Max_cycle;Signal;HPM_P1;HPM_P2
2023/10/01 00:00:26;;;;;;;14.38;8.27;;;12.10;99.90;;;;;;5015633;28;20475;-38
2023/10/01 00:02:55;;;;;;;16.08;8.95;;;12.10;99.90;;;;;;5025395;28;20053;-42
2023/10/01 00:05:24;;;;;;;15.25;8.60;;;12.20;99.90;;;;;;5020207;28;20050;-39
2023/10/01 00:07:52;;;;;;;14.68;9.07;;;12.10;99.90;;;;;;5024481;28;20050;-40
2023/10/01 00:10:20;;;;;;;14.50;8.20;;;12.10;99.90;;;;;;5023949;28;20045;-41
2023/10/01 00:12:50;;;;;;;17.00;9.07;;;12.10;99.90;;;;;;5016315;28;20101;-40
2023/10/01 00:15:19;;;;;;;12.05;7.95;;;12.10;99.90;;;;;;5026412;28;20045;-38
2023/10/01 00:17:48;;;;;;;16.48;8.80;;;12.00;99.90;;;;;;5029641;28;20544;-39
2023/10/01 00:20:29;;;;;;;15.77;9.27;;;12.10;99.90;;;;;;5025287;28;20483;-39
2023/10/01 00:23:02;;;;;;;15.93;9.07;;;12.00;99.90;;;;;;5026400;28;20053;-41
2023/10/01 00:25:32;;;;;;;13.88;8.90;;;12.10;99.90;;;;;;5011222;28;20141;-40
2023/10/01 00:28:01;;;;;;;18.15;9.18;;;12.00;99.90;;;;;;5021374;28;20060;-42
2023/10/01 00:30:31;;;;;;;16.40;8.95;;;12.00;99.90;;;;;;5026285;28;20124;-41
2023/10/01 00:33:13;;;;;;;12.40;7.95;;;12.00;99.90;;;;;;5016137;28;20049;-38
2023/10/01 00:35:41;;;;;;;14.25;8.10;;;12.00;99.90;;;;;;5023593;28;20041;-40
2023/10/01 00:38:09;;;;;;;14.05;8.50;;;11.90;99.90;;;;;;5020236;28;20398;-37
2023/10/01 00:40:37;;;;;;;15.38;8.85;;;11.90;99.90;;;;;;5026213;28;20513;-38
2023/10/01 00:43:05;;;;;;;17.17;9.88;;;11.90;99.90;;;;;;5012840;28;20193;-37
2023/10/01 00:45:33;;;;;;;13.15;8.65;;;11.90;99.90;;;;;;5031704;28;20198;-40
2023/10/01 00:48:14;;;;;;;15.05;9.13;;;11.90;99.90;;;;;;5028214;28;20057;-40
2023/10/01 00:50:42;;;;;;;16.10;8.95;;;11.80;99.90;;;;;;5017703;28;20046;-38
2023/10/01 00:53:10;;;;;;;13.02;8.40;;;11.80;99.90;;;;;;5027220;28;20442;-39
2023/10/01 00:55:39;;;;;;;14.55;8.57;;;11.80;99.90;;;;;;5031077;28;20041;-41
2023/10/01 00:58:10;;;;;;;14.40;9.68;;;11.80;99.90;;;;;;5027224;28;20052;-40
2023/10/01 01:00:38;;;;;;;16.42;9.73;;;11.70;99.90;;;;;;5021190;28;20512;-37
2023/10/01 01:05:57;;;;;;;16.92;10.13;;;11.80;99.90;;;;;;5040687;28;20046;-38
2023/10/01 01:08:34;;;;;;;14.57;9.43;;;11.70;99.90;;;;;;5018785;28;20073;-40
2023/10/01 01:11:01;;;;;;;16.30;9.15;;;11.70;99.90;;;;;;5022788;28;20049;-40
2023/10/01 01:13:30;;;;;;;16.33;9.02;;;11.60;99.90;;;;;;5016124;28;20037;-39
2023/10/01 01:15:57;;;;;;;15.35;9.57;;;11.60;99.90;;;;;;5010136;28;20057;-39
2023/10/01 01:18:26;;;;;;;17.63;9.15;;;11.60;99.90;;;;;;5020602;28;20057;-38
2023/10/01 01:20:58;;;;;;;18.33;9.60;;;11.50;99.90;;;;;;5013652;28;20109;-40
2023/10/01 01:23:30;;;;;;;17.85;9.30;;;11.50;99.90;;;;;;5031958;28;20152;-43
2023/10/01 01:25:59;;;;;;;21.17;10.40;;;11.40;99.90;;;;;;5032555;28;20045;-40
2023/10/01 01:28:30;;;;;;;13.88;8.85;;;11.40;99.90;;;;;;5029184;28;20073;-41
2023/10/01 01:31:00;;;;;;;18.07;10.03;;;11.30;99.90;;;;;;5019847;28;20078;-41
2023/10/01 01:33:40;;;;;;;12.70;8.70;;;11.30;99.90;;;;;;5015527;28;20309;-39
2023/10/01 01:36:17;;;;;;;16.40;9.40;;;11.40;99.90;;;;;;5010903;28;20056;-38
2023/10/01 01:39:28;;;;;;;15.82;9.88;;;11.40;99.90;;;;;;5008475;28;20096;-40
2023/10/01 01:41:57;;;;;;;14.98;9.00;;;11.30;99.90;;;;;;5016054;28;20126;-40
2023/10/01 01:44:25;;;;;;;16.67;9.32;;;11.30;99.90;;;;;;5013718;28;20053;-38
2023/10/01 01:47:00;;;;;;;19.17;9.90;;;11.20;99.90;;;;;;5023328;28;20508;-39
2023/10/01 01:49:28;;;;;;;15.18;9.50;;;11.20;99.90;;;;;;5006989;28;20058;-41
2023/10/01 01:52:03;;;;;;;16.77;10.30;;;11.20;99.90;;;;;;5020537;28;20212;-40
2023/10/01 01:54:39;;;;;;;16.30;9.20;;;11.10;99.90;;;;;;5021861;28;20475;-39
2023/10/01 01:57:14;;;;;;;21.05;9.40;;;11.00;99.90;;;;;;5023709;28;20422;-40
2023/10/01 01:59:41;;;;;;;15.57;8.80;;;11.00;99.90;;;;;;5017542;28;20049;-41
2023/10/01 02:02:09;;;;;;;15.20;9.18;;;11.00;99.90;;;;;;5018862;28;20404;-40
2023/10/01 02:04:58;;;;;;;14.82;8.82;;;11.00;99.90;;;;;;5021828;28;20042;-39
2023/10/01 02:07:33;;;;;;;16.98;9.40;;;11.00;99.90;;;;;;5022013;28;20080;-43
2023/10/01 02:10:04;;;;;;;18.48;10.10;;;11.00;99.90;;;;;;5013459;28;20062;-41
2023/10/01 02:12:36;;;;;;;17.00;9.50;;;10.90;99.90;;;;;;5023069;28;20053;-39
2023/10/01 02:15:07;;;;;;;16.05;9.30;;;10.90;99.90;;;;;;5010360;28;20150;-41
2023/10/01 02:17:35;;;;;;;;;;;10.90;99.90;;;;;;5016795;28;20058;-39
2023/10/01 02:20:22;;;;;;;15.77;9.70;;;10.90;99.90;;;;;;5014943;28;19936;-41
2023/10/01 02:22:49;;;;;;;12.50;8.35;;;10.90;99.90;;;;;;5029324;28;20056;-38
2023/10/01 02:25:36;;;;;;;14.73;8.82;;;10.90;99.90;;;;;;5019609;28;20050;-37
2023/10/01 02:28:15;;;;;;;15.23;9.13;;;10.80;99.90;;;;;;5014589;28;20545;-39
2023/10/01 02:30:44;;;;;;;14.75;8.82;;;10.80;99.90;;;;;;5022236;28;20165;-41
2023/10/01 02:33:21;;;;;;;16.58;9.27;;;10.80;99.90;;;;;;5015673;28;20049;-38
2023/10/01 02:35:55;;;;;;;15.90;9.07;;;10.80;99.90;;;;;;5021776;28;20061;-39
2023/10/01 02:38:43;;;;;;;14.20;9.23;;;10.80;99.90;;;;;;5015390;28;20062;-37
2023/10/01 02:41:15;;;;;;;19.27;10.85;;;10.70;99.90;;;;;;5017149;28;20056;-39
2023/10/01 02:43:42;;;;;;;15.63;9.32;;;10.70;99.90;;;;;;5017899;28;20121;-42
2023/10/01 02:46:12;;;;;;;14.60;8.20;;;10.70;99.90;;;;;;5020571;28;20499;-40
2023/10/01 02:48:42;;;;;;;16.98;9.43;;;10.70;99.90;;;;;;5038523;28;20096;-40
2023/10/01 02:51:16;;;;;;;13.50;8.55;;;10.80;99.90;;;;;;5027477;28;20037;-38
2023/10/01 02:54:05;;;;;;;16.17;9.23;;;10.80;99.90;;;;;;5028285;28;20117;-40
2023/10/01 02:56:37;;;;;;;15.73;9.18;;;10.80;99.90;;;;;;5019871;28;20502;-40
2023/10/01 02:59:12;;;;;;;16.08;8.57;;;10.80;99.90;;;;;;5017945;28;20037;-37
2023/10/01 03:01:46;;;;;;;16.73;8.57;;;10.80;99.90;;;;;;5015721;28;20071;-41
2023/10/01 03:04:17;;;;;;;16.63;8.88;;;10.80;99.90;;;;;;5011579;28;20617;-40
2023/10/01 03:06:55;;;;;;;20.00;8.55;;;10.80;99.90;;;;;;5016202;28;20047;-38
2023/10/01 03:09:33;;;;;;;15.02;9.00;;;10.80;99.90;;;;;;5023885;28;20053;-38
2023/10/01 03:15:00;;;;;;;17.95;10.07;;;10.80;99.90;;;;;;5013775;28;20084;-37
2023/10/01 03:17:35;;;;;;;14.45;9.60;;;10.80;99.90;;;;;;5026541;28;20053;-40
2023/10/01 03:22:52;;;;;;;14.57;9.13;;;10.80;99.90;;;;;;5019368;28;20132;-40
2023/10/01 03:25:27;;;;;;;;;;;10.80;99.90;;;;;;5019587;28;20050;-40
2023/10/01 03:27:58;;;;;;;13.75;8.77;;;10.80;99.90;;;;;;5015615;28;19927;-41
2023/10/01 03:30:32;;;;;;;14.43;8.63;;;10.60;99.90;;;;;;5014983;28;20058;-40
2023/10/01 03:33:07;;;;;;;14.52;9.18;;;10.60;99.90;;;;;;5021162;28;20128;-37
2023/10/01 03:35:35;;;;;;;14.88;8.05;;;10.60;99.90;;;;;;5025858;28;20046;-38
2023/10/01 03:38:09;;;;;;;15.98;9.07;;;10.60;99.90;;;;;;5021077;28;20066;-39
2023/10/01 03:40:57;;;;;;;15.85;9.38;;;10.60;99.90;;;;;;5027440;28;20042;-40
2023/10/01 03:43:35;;;;;;;19.42;9.00;;;10.60;99.90;;;;;;5022948;28;20132;-40
2023/10/01 03:46:07;;;;;;;15.40;8.10;;;10.50;99.90;;;;;;5017835;28;20045;-40
2023/10/01 03:51:28;;;;;;;14.10;8.50;;;10.50;99.90;;;;;;5012997;28;20025;-38
2023/10/01 03:54:03;;;;;;;14.82;8.75;;;10.50;99.90;;;;;;5016936;28;20050;-39
2023/10/01 03:56:32;;;;;;;16.00;8.23;;;10.50;99.90;;;;;;5023930;28;20061;-39
2023/10/01 03:59:00;;;;;;;14.02;7.88;;;10.50;99.90;;;;;;5011802;28;20514;-36
2023/10/01 04:01:34;;;;;;;15.65;8.23;;;10.40;99.90;;;;;;5015747;28;20481;-40
2023/10/01 04:04:01;;;;;;;17.10;9.40;;;10.40;99.90;;;;;;5015541;28;20530;-39
2023/10/01 04:06:30;;;;;;;14.18;8.52;;;10.50;99.90;;;;;;5014835;28;20065;-39
2023/10/01 04:09:00;;;;;;;14.73;8.35;;;10.50;99.90;;;;;;5015188;28;20042;-38
2023/10/01 04:11:49;;;;;;;15.93;9.50;;;10.50;99.90;;;;;;5022207;28;20080;-40
2023/10/01 04:14:18;;;;;;;16.30;8.40;;;10.50;99.90;;;;;;5013111;28;20042;-37
2023/10/01 04:16:48;;;;;;;16.20;8.10;;;10.50;99.90;;;;;;5026792;28;20050;-38
2023/10/01 04:19:18;;;;;;;12.88;8.02;;;10.50;99.90;;;;;;5018351;28;20101;-38
2023/10/01 04:21:50;;;;;;;13.85;8.57;;;10.40;99.90;;;;;;5014332;28;20066;-42
2023/10/01 04:24:21;;;;;;;16.02;8.95;;;10.50;99.90;;;;;;5015821;28;20057;-37
2023/10/01 04:26:50;;;;;;;15.57;8.98;;;10.40;99.90;;;;;;5017089;28;20058;-37
2023/10/01 04:29:17;;;;;;;13.95;9.05;;;10.40;99.90;;;;;;5020953;28;20135;-39
2023/10/01 04:31:48;;;;;;;13.38;8.38;;;10.30;99.90;;;;;;5017946;28;20442;-40
2023/10/01 04:34:17;;;;;;;13.82;8.48;;;10.30;99.90;;;;;;5011435;28;20046;-40
2023/10/01 04:36:50;;;;;;;15.85;8.85;;;10.30;99.90;;;;;;5025348;28;20468;-39
2023/10/01 04:39:18;;;;;;;17.63;8.23;;;10.20;99.90;;;;;;5011033;28;20038;-40
2023/10/01 04:41:46;;;;;;;15.95;8.02;;;10.30;99.90;;;;;;5010525;28;20144;-38
2023/10/01 04:44:13;;;;;;;17.67;9.52;;;10.30;99.90;;;;;;5008219;28;20050;-39
2023/10/01 04:46:41;;;;;;;17.33;8.73;;;10.30;99.90;;;;;;5012853;28;20085;-39
2023/10/01 04:49:08;;;;;;;12.27;8.40;;;10.30;99.90;;;;;;5010310;28;20103;-40
2023/10/01 04:51:57;;;;;;;13.30;8.15;;;10.20;99.90;;;;;;5011394;28;20053;-40
2023/10/01 04:54:26;;;;;;;14.07;7.90;;;10.30;99.90;;;;;;5012042;28;20149;-39
2023/10/01 04:56:57;;;;;;;18.75;9.55;;;10.30;99.90;;;;;;5011570;28;20042;-41
2023/10/01 04:59:24;;;;;;;14.77;9.00;;;10.20;99.90;;;;;;5012910;28;20590;-39
2023/10/01 05:01:56;;;;;;;18.50;9.02;;;10.20;99.90;;;;;;5013060;28;20418;-40
2023/10/01 05:04:28;;;;;;;16.13;8.82;;;10.20;99.90;;;;;;5013877;28;20471;-40
2023/10/01 05:07:04;;;;;;;14.80;8.65;;;10.20;99.90;;;;;;5013007;28;20133;-39
2023/10/01 05:09:36;;;;;;;16.30;9.10;;;10.20;99.90;;;;;;5008835;28;20125;-39
2023/10/01 05:12:03;;;;;;;15.80;9.18;;;10.20;99.90;;;;;;5015671;28;20503;-40
2023/10/01 05:14:32;;;;;;;18.63;9.68;;;10.20;99.90;;;;;;5009559;28;20054;-41
2023/10/01 05:17:07;;;;;;;16.27;9.32;;;10.20;99.90;;;;;;5011034;28;20125;-38
2023/10/01 05:19:37;;;;;;;14.93;9.43;;;10.20;99.90;;;;;;5017947;28;21641;-41
2023/10/01 05:22:08;;;;;;;17.88;9.88;;;10.20;99.90;;;;;;5015928;28;20453;-39
2023/10/01 05:24:36;;;;;;;16.30;9.55;;;10.30;99.90;;;;;;5013529;28;20107;-41
2023/10/01 05:27:09;;;;;;;16.05;8.93;;;10.30;99.90;;;;;;5020980;28;20470;-39
2023/10/01 05:29:42;;;;;;;14.40;9.05;;;10.30;99.90;;;;;;5028400;28;20046;-42
2023/10/01 05:32:13;;;;;;;16.17;8.77;;;10.40;99.90;;;;;;5024634;28;20064;-41
2023/10/01 05:34:46;;;;;;;13.98;8.27;;;10.40;99.90;;;;;;5025372;28;20487;-38
2023/10/01 05:37:24;;;;;;;14.63;8.68;;;10.40;99.90;;;;;;5028225;28;20050;-40
2023/10/01 05:39:55;;;;;;;15.98;8.50;;;10.50;99.90;;;;;;5029865;28;20053;-38
2023/10/01 05:42:28;;;;;;;18.40;10.02;;;10.40;99.90;;;;;;5026860;28;20046;-39
2023/10/01 05:44:56;;;;;;;18.88;9.32;;;10.50;99.90;;;;;;5033461;28;20057;-39
2023/10/01 05:47:41;;;;;;;17.85;9.20;;;10.50;99.90;;;;;;5026712;28;20046;-40
2023/10/01 05:50:12;;;;;;;13.65;8.68;;;10.60;99.90;;;;;;5013015;28;20062;-39
2023/10/01 05:52:40;;;;;;;14.97;8.73;;;10.70;99.90;;;;;;5020617;28;20198;-37
2023/10/01 05:55:12;;;;;;;15.70;9.07;;;10.70;99.90;;;;;;5016899;28;20052;-39
2023/10/01 05:57:40;;;;;;;18.75;10.77;;;10.80;99.90;;;;;;5020014;28;20120;-41
2023/10/01 06:00:17;;;;;;;19.98;11.55;;;10.90;99.90;;;;;;5013975;28;20109;-39
2023/10/01 06:02:48;;;;;;;18.85;10.88;;;11.00;99.90;;;;;;5018261;28;20140;-41
2023/10/01 06:05:32;;;;;;;15.63;10.13;;;11.10;99.90;;;;;;5013260;28;20061;-41
2023/10/01 06:08:13;;;;;;;17.20;9.25;;;11.20;99.90;;;;;;5016639;28;20049;-40
2023/10/01 06:11:06;;;;;;;15.63;9.35;;;11.30;99.90;;;;;;5015686;28;20073;-40
2023/10/01 06:13:39;;;;;;;19.35;10.68;;;11.40;99.90;;;;;;5009437;28;20054;-39
2023/10/01 06:16:16;;;;;;;20.55;10.02;;;11.40;99.90;;;;;;5013193;28;20128;-41
2023/10/01 06:18:56;;;;;;;15.20;9.90;;;11.40;99.90;;;;;;5017636;28;20045;-38
2023/10/01 06:21:31;;;;;;;15.75;9.25;;;11.50;99.90;;;;;;5015064;28;20061;-38
2023/10/01 06:24:10;;;;;;;14.68;9.00;;;11.60;99.90;;;;;;5021936;28;20414;-41
2023/10/01 06:26:45;;;;;;;15.65;9.55;;;11.70;99.90;;;;;;5021126;28;20058;-40
2023/10/01 06:29:14;;;;;;;17.33;9.07;;;11.70;99.90;;;;;;5019254;28;20045;-40
2023/10/01 06:32:01;;;;;;;17.70;9.77;;;11.80;99.90;;;;;;5023459;28;20394;-38
2023/10/01 06:34:32;;;;;;;15.13;9.65;;;11.80;99.90;;;;;;5021771;28;20538;-39
2023/10/01 06:37:01;;;;;;;15.30;9.20;;;11.90;99.90;;;;;;5019967;28;20046;-40
2023/10/01 06:39:30;;;;;;;17.38;9.15;;;11.90;99.90;;;;;;5016855;28;20351;-39
2023/10/01 06:42:18;;;;;;;14.10;8.93;;;12.10;99.90;;;;;;5030751;28;20498;-39
2023/10/01 06:44:49;;;;;;;18.88;9.00;;;12.10;99.90;;;;;;5016359;28;20088;-41
2023/10/01 06:47:17;;;;;;;13.52;8.45;;;12.10;99.90;;;;;;5018400;28;20038;-39
2023/10/01 06:52:39;;;;;;;16.58;9.30;;;12.30;99.90;;;;;;5024380;28;20049;-40
2023/10/01 06:55:07;;;;;;;18.33;9.50;;;12.40;99.90;;;;;;5023431;28;20726;-40
2023/10/01 06:57:38;;;;;;;17.25;9.55;;;12.40;99.90;;;;;;5031315;28;20042;-40
2023/10/01 07:00:13;;;;;;;15.30;9.77;;;12.50;99.90;;;;;;5021439;28;20183;-40
2023/10/01 07:02:40;;;;;;;19.17;10.77;;;12.70;99.90;;;;;;5020576;28;20723;-39
2023/10/01 07:05:16;;;;;;;16.23;10.20;;;12.80;99.90;;;;;;5019246;28;20053;-38
2023/10/01 07:07:43;;;;;;;13.80;9.02;;;12.90;99.90;;;;;;5022774;28;20065;-41
2023/10/01 07:10:11;;;;;;;17.52;9.82;;;13.00;99.90;;;;;;5017436;28;20076;-39
2023/10/01 07:12:53;;;;;;;14.07;9.35;;;13.10;99.90;;;;;;5017570;28;20068;-38
2023/10/01 07:15:23;;;;;;;17.17;9.57;;;13.20;99.90;;;;;;5027149;28;20050;-40
2023/10/01 07:17:51;;;;;;;14.63;8.35;;;13.40;99.90;;;;;;5028476;28;20053;-39
2023/10/01 07:20:18;;;;;;;16.10;10.25;;;13.40;99.90;;;;;;5034158;28;20056;-38
2023/10/01 07:22:46;;;;;;;16.33;9.35;;;13.50;99.90;;;;;;5021765;28;20061;-38
2023/10/01 07:25:37;;;;;;;18.67;10.30;;;13.60;99.90;;;;;;5026028;28;20054;-40
2023/10/01 07:28:12;;;;;;;17.05;8.73;;;13.70;99.90;;;;;;5021199;28;20109;-42
2023/10/01 07:30:51;;;;;;;18.30;9.82;;;13.80;99.90;;;;;;5026570;28;20520;-43
2023/10/01 07:33:22;;;;;;;15.63;9.38;;;13.90;99.90;;;;;;5020868;28;20117;-41
2023/10/01 07:35:59;;;;;;;17.05;10.10;;;14.00;99.90;;;;;;5031186;28;20046;-39
2023/10/01 07:38:28;;;;;;;14.02;9.00;;;14.10;99.90;;;;;;5027260;28;20077;-41
2023/10/01 07:40:59;;;;;;;17.40;10.13;;;14.30;99.90;;;;;;5030426;28;20041;-40
2023/10/01 07:43:27;;;;;;;17.80;10.30;;;14.40;99.90;;;;;;5024976;28;20100;-41
2023/10/01 07:45:57;;;;;;;19.38;12.05;;;14.50;99.90;;;;;;5025794;28;20049;-40
2023/10/01 07:48:29;;;;;;;18.08;11.07;;;14.70;99.90;;;;;;5024461;28;20046;-40
2023/10/01 07:51:02;;;;;;;16.90;10.88;;;14.80;99.90;;;;;;5029437;28;20045;-37
2023/10/01 07:53:42;;;;;;;17.98;10.68;;;14.90;99.90;;;;;;5021373;28;20066;-36
2023/10/01 07:56:15;;;;;;;14.98;9.93;;;14.90;99.90;;;;;;5015774;28;20188;-38
2023/10/01 07:58:45;;;;;;;18.13;10.27;;;15.10;99.90;;;;;;5025952;28;20055;-39
2023/10/01 08:04:06;;;;;;;17.48;10.13;;;15.50;99.90;;;;;;5020087;28;20070;-38
2023/10/01 08:06:43;;;;;;;14.68;9.73;;;15.60;99.90;;;;;;5015389;28;20132;-39
2023/10/01 08:09:13;;;;;;;15.95;9.20;;;15.80;99.90;;;;;;5019383;28;20050;-40
2023/10/01 08:12:05;;;;;;;14.77;9.30;;;15.80;99.90;;;;;;5026800;28;20045;-39
2023/10/01 08:14:33;;;;;;;14.85;9.32;;;15.90;99.90;;;;;;5017485;28;20502;-38
2023/10/01 08:17:05;;;;;;;15.90;10.18;;;16.10;99.90;;;;;;5019442;28;20048;-38
2023/10/01 08:19:44;;;;;;;14.80;8.70;;;16.30;99.90;;;;;;5017604;28;20483;-39
2023/10/01 08:22:15;;;;;;;17.10;9.52;;;16.40;99.90;;;;;;5030344;28;20045;-42
2023/10/01 08:24:49;;;;;;;17.27;9.80;;;16.50;99.90;;;;;;5026296;28;20057;-38
2023/10/01 08:27:33;;;;;;;17.38;10.07;;;16.40;99.90;;;;;;5013626;28;20200;-39
2023/10/01 08:30:18;;;;;;;16.73;10.00;;;16.50;99.90;;;;;;5028929;28;20080;-41
2023/10/01 08:33:18;;;;;;;16.48;10.10;;;16.70;99.90;;;;;;5017557;28;20049;-40
2023/10/01 08:35:39;;;;;;;16.23;11.20;;;16.80;99.90;;;;;;5025357;28;20069;-40
2023/10/01 08:38:15;;;;;;;15.30;11.07;;;16.90;99.90;;;;;;5023025;28;20064;-40
2023/10/01 08:40:43;;;;;;;22.63;15.02;;;17.00;99.90;;;;;;5019045;28;20045;-38
2023/10/01 08:43:16;;;;;;;18.15;14.10;;;16.90;99.90;;;;;;5014137;28;20062;-40
2023/10/01 08:45:47;;;;;;;19.98;13.82;;;16.90;99.90;;;;;;5015162;28;20056;-40
2023/10/01 08:48:17;;;;;;;19.90;13.55;;;17.00;99.90;;;;;;5012311;28;20041;-38
2023/10/01 08:50:46;;;;;;;20.35;14.40;;;17.10;99.90;;;;;;5021013;28;20057;-40
2023/10/01 08:53:14;;;;;;;20.20;14.52;;;17.10;99.90;;;;;;5015631;28;20049;-38
2023/10/01 09:03:39;;;;;;;18.58;12.93;;;17.30;99.90;;;;;;5025821;28;20049;-39
2023/10/01 09:06:24;;;;;;;19.38;12.30;;;17.50;99.90;;;;;;5027742;28;20141;-41
2023/10/01 09:08:59;;;;;;;23.05;13.60;;;17.70;99.90;;;;;;5028924;28;20053;-39
2023/10/01 09:11:42;;;;;;;19.42;13.35;;;17.80;99.90;;;;;;5028694;28;20144;-37
2023/10/01 09:14:20;;;;;;;17.35;11.07;;;18.00;99.90;;;;;;5023751;28;20062;-39
2023/10/01 09:16:58;;;;;;;17.52;10.10;;;18.00;99.90;;;;;;5023991;28;20072;-38
2023/10/01 09:19:37;;;;;;;17.75;10.20;;;18.10;99.90;;;;;;5018545;28;20769;-42
2023/10/01 09:25:19;;;;;;;17.98;10.95;;;18.30;99.90;;;;;;5023064;28;20046;-41
2023/10/01 09:31:26;;;;;;;14.70;8.82;;;18.50;99.90;;;;;;4983672;28;20050;-39
2023/10/01 09:33:55;;;;;;;17.52;11.27;;;18.40;99.90;;;;;;4983950;28;20055;-37
2023/10/01 09:36:45;;;;;;;15.55;9.55;;;18.70;99.90;;;;;;4984828;28;20098;-41
2023/10/01 09:39:22;;;;;;;17.63;10.30;;;18.80;99.90;;;;;;4993886;28;20050;-41
2023/10/01 09:41:52;;;;;;;22.33;10.00;;;19.00;99.90;;;;;;4989074;28;20042;-40
2023/10/01 09:44:19;;;;;;;20.40;12.88;;;19.00;99.90;;;;;;4983416;28;20161;-38
2023/10/01 09:46:49;;;;;;;17.63;11.82;;;19.10;99.90;;;;;;4985492;28;20058;-40
2023/10/01 09:49:30;;;;;;;18.83;11.20;;;19.30;99.90;;;;;;4983504;28;20054;-39
2023/10/01 09:52:03;;;;;;;15.18;9.35;;;19.60;99.90;;;;;;4985382;28;20054;-38
2023/10/01 09:54:41;;;;;;;14.13;8.93;;;19.80;99.90;;;;;;4984909;28;20058;-42
2023/10/01 09:57:10;;;;;;;13.73;8.82;;;20.00;99.90;;;;;;4969326;28;20089;-39
2023/10/01 09:59:39;;;;;;;16.17;9.07;;;19.80;99.90;;;;;;4982827;28;20050;-40
2023/10/01 10:02:08;;;;;;;12.48;7.65;;;19.80;99.90;;;;;;4983640;28;20054;-40
2023/10/01 10:04:39;;;;;;;15.07;8.20;;;20.00;99.90;;;;;;4994999;28;20541;-39
2023/10/01 10:07:08;;;;;;;14.32;8.40;;;20.00;99.90;;;;;;5023527;28;20053;-40
2023/10/01 10:09:37;;;;;;;13.60;7.95;;;20.30;99.90;;;;;;5022395;28;20054;-41
2023/10/01 10:12:07;;;;;;;11.27;7.40;;;20.40;99.90;;;;;;5021100;28;20081;-38
2023/10/01 10:14:35;;;;;;;13.75;7.70;;;20.60;99.90;;;;;;5022234;28;20077;-43
2023/10/01 10:20:16;;;;;;;13.52;7.90;;;20.80;99.90;;;;;;5019890;28;20054;-37
2023/10/01 10:23:14;;;;;;;14.02;7.50;;;21.00;99.90;;;;;;5006851;28;20053;-38
2023/10/01 10:25:45;;;;;;;14.30;8.10;;;21.10;99.90;;;;;;5023532;28;20042;-38
2023/10/01 10:28:29;;;;;;;12.77;7.93;;;21.00;99.90;;;;;;5015042;28;20449;-38
2023/10/01 10:31:32;;;;;;;13.75;8.68;;;21.20;99.90;;;;;;5015162;28;20073;-41
2023/10/01 10:34:22;;;;;;;12.68;7.72;;;21.60;99.90;;;;;;5018740;28;20249;-40
2023/10/01 10:36:50;;;;;;;16.90;9.27;;;22.00;99.90;;;;;;5020890;28;20050;-39
2023/10/01 10:40:02;;;;;;;15.48;8.25;;;22.00;99.90;;;;;;5021716;28;20045;-40
2023/10/01 10:42:35;;;;;;;12.70;7.82;;;22.10;99.90;;;;;;5024138;28;20038;-40
2023/10/01 10:45:20;;;;;;;15.57;8.70;;;21.90;99.90;;;;;;5033729;28;20055;-39
2023/10/01 10:47:59;;;;;;;15.10;8.38;;;21.80;99.90;;;;;;5019668;28;20054;-42
2023/10/01 10:50:49;;;;;;;12.55;8.10;;;22.00;99.90;;;;;;5021413;28;20081;-41
2023/10/01 10:53:21;;;;;;;12.52;8.32;;;22.10;99.90;;;;;;5013419;28;20051;-41
2023/10/01 10:56:01;;;;;;;14.23;8.55;;;22.50;99.90;;;;;;5018649;28;20041;-39
2023/10/01 10:58:45;;;;;;;12.20;7.38;;;22.70;99.90;;;;;;5020966;28;20057;-39
2023/10/01 11:01:16;;;;;;;12.05;7.85;;;22.80;99.90;;;;;;5020505;28;20038;-40
2023/10/01 11:03:57;;;;;;;14.40;8.07;;;22.90;99.90;;;;;;5021341;28;20070;-38
2023/10/01 11:06:43;;;;;;;12.23;8.70;;;23.30;99.90;;;;;;5014592;28;20053;-40
2023/10/01 11:09:30;;;;;;;13.95;8.00;;;23.90;99.90;;;;;;5020356;28;20057;-41
2023/10/01 11:12:18;;;;;;;11.93;8.25;;;24.30;99.90;;;;;;5015051;28;20132;-39
2023/10/01 11:15:19;;;;;;;13.35;8.48;;;24.30;99.90;;;;;;5024551;28;20385;-40
2023/10/01 11:17:47;;;;;;;14.75;8.27;;;24.50;99.90;;;;;;5027975;28;20050;-40
2023/10/01 11:20:24;;;;;;;16.50;9.00;;;25.10;99.90;;;;;;5019806;28;20053;-41
2023/10/01 11:22:54;;;;;;;14.00;8.82;;;24.50;99.90;;;;;;5018489;28;20057;-41
2023/10/01 11:25:23;;;;;;;15.48;9.52;;;24.70;99.90;;;;;;5014050;28;20049;-38
2023/10/01 11:28:05;;;;;;;13.50;9.02;;;24.90;99.90;;;;;;5020173;28;20042;-42
2023/10/01 11:30:42;;;;;;;;;;;25.30;99.90;;;;;;5016319;28;20053;-38
2023/10/01 11:38:47;;;;;;;12.68;8.63;;;25.90;99.90;;;;;;5010723;28;20042;-39
2023/10/01 11:41:18;;;;;;;13.50;9.63;;;26.30;99.90;;;;;;5017487;28;20068;-37
2023/10/01 11:43:59;;;;;;;13.55;9.00;;;26.90;99.90;;;;;;5020165;28;20053;-38
2023/10/01 11:46:32;;;;;;;14.50;9.13;;;27.20;99.90;;;;;;5018787;28;20706;-40
2023/10/01 11:49:06;;;;;;;14.50;9.27;;;26.70;99.90;;;;;;5020431;28;20068;-38
2023/10/01 11:51:41;;;;;;;11.25;8.13;;;25.40;99.90;;;;;;5026345;28;20065;-39
2023/10/01 11:54:14;;;;;;;12.32;8.75;;;25.50;99.90;;;;;;5015648;28;20424;-39
2023/10/01 11:57:07;;;;;;;14.77;9.23;;;26.20;99.90;;;;;;5018754;28;20517;-37
2023/10/01 11:59:36;;;;;;;13.88;8.77;;;26.50;99.90;;;;;;5022591;28;20137;-38
2023/10/01 12:02:20;;;;;;;10.27;8.02;;;26.20;99.90;;;;;;5015909;28;20050;-38
2023/10/01 12:04:56;;;;;;;12.25;7.82;;;26.50;99.90;;;;;;5017911;28;20077;-37
2023/10/01 12:07:33;;;;;;;12.85;8.45;;;27.00;98.70;;;;;;5014587;28;20058;-39
2023/10/01 12:10:05;;;;;;;15.32;9.07;;;27.60;97.20;;;;;;5016130;28;20121;-40
2023/10/01 12:12:39;;;;;;;12.32;8.45;;;28.10;96.60;;;;;;5024226;28;20049;-40
2023/10/01 12:17:54;;;;;;;12.13;8.02;;;27.60;93.70;;;;;;5036052;28;20045;-39
2023/10/01 12:20:29;;;;;;;11.13;7.78;;;27.30;94.50;;;;;;5029042;28;20567;-41
2023/10/01 12:23:11;;;;;;;12.05;8.07;;;27.80;93.30;;;;;;5019658;28;20144;-40
2023/10/01 12:25:53;;;;;;;12.93;9.18;;;28.00;93.20;;;;;;5025190;28;20140;-42
2023/10/01 12:28:28;;;;;;;10.82;7.60;;;28.20;93.50;;;;;;5017073;28;20038;-38
2023/10/01 12:31:09;;;;;;;11.85;8.35;;;28.30;91.90;;;;;;5017119;28;20099;-38
2023/10/01 12:33:47;;;;;;;10.65;7.75;;;28.70;91.10;;;;;;5016096;28;20064;-39
2023/10/01 12:36:31;;;;;;;11.25;8.27;;;28.90;90.30;;;;;;5021044;28;20418;-38
2023/10/01 12:41:47;;;;;;;10.60;7.85;;;30.10;85.20;;;;;;5017062;28;20442;-38
2023/10/01 12:44:25;;;;;;;12.18;8.20;;;30.80;82.70;;;;;;5014456;28;20037;-40
2023/10/01 12:46:54;;;;;;;12.43;8.30;;;30.90;81.50;;;;;;5022418;28;20049;-38
2023/10/01 12:49:22;;;;;;;11.68;8.57;;;31.30;78.40;;;;;;5019278;28;20061;-44
2023/10/01 12:51:53;;;;;;;10.75;8.57;;;31.80;74.10;;;;;;5025368;28;20049;-40
2023/10/01 12:54:27;;;;;;;11.93;8.93;;;32.30;72.30;;;;;;5018874;28;20097;-39
2023/10/01 12:57:09;;;;;;;10.38;7.75;;;33.40;71.00;;;;;;5022651;28;20068;-40
2023/10/01 12:59:40;;;;;;;10.85;8.40;;;34.30;66.80;;;;;;5013552;28;20590;-37
2023/10/01 13:07:56;;;;;;;9.25;7.65;;;35.40;59.40;;;;;;5023162;28;20049;-41
2023/10/01 13:10:34;;;;;;;10.80;8.25;;;35.80;59.90;;;;;;5015756;28;20541;-42
2023/10/01 13:13:07;;;;;;;10.88;8.25;;;36.50;57.70;;;;;;5015618;28;20459;-41
2023/10/01 13:15:40;;;;;;;10.55;9.20;;;36.40;57.00;;;;;;5010683;28;20133;-42
2023/10/01 13:18:14;;;;;;;11.20;8.60;;;37.30;55.90;;;;;;5021129;28;20060;-40
2023/10/01 13:23:28;;;;;;;8.68;7.80;;;37.40;51.40;;;;;;5016132;28;20060;-40
2023/10/01 13:26:05;;;;;;;8.80;7.82;;;37.10;51.80;;;;;;5018655;28;20131;-45
2023/10/01 13:28:45;;;;;;;11.85;8.18;;;37.00;49.20;;;;;;5016159;28;20050;-40
2023/10/01 13:39:26;;;;;;;11.50;8.65;;;36.90;49.40;;;;;;5022494;28;20062;-39
2023/10/01 14:09:52;;;;;;;8.90;7.93;;;39.60;43.00;;;;;;5022222;28;20057;-44
2023/10/01 14:12:41;;;;;;;8.60;7.77;;;39.30;43.30;;;;;;5022358;28;20117;-39
2023/10/01 14:15:21;;;;;;;10.25;8.38;;;39.30;42.90;;;;;;5021540;28;20077;-38
2023/10/01 14:17:56;;;;;;;9.80;8.90;;;39.60;43.10;;;;;;5012569;28;20060;-37
2023/10/01 14:20:37;;;;;;;9.52;8.50;;;39.80;42.80;;;;;;5010132;28;20050;-39
2023/10/01 14:23:09;;;;;;;9.63;8.63;;;40.10;41.20;;;;;;5009767;28;20046;-38
2023/10/01 14:26:13;;;;;;;9.50;8.02;;;38.40;42.10;;;;;;5012131;28;20060;-40
2023/10/01 14:28:31;;;;;;;9.88;8.48;;;37.90;42.70;;;;;;5014939;28;20124;-41
2023/10/01 14:31:07;;;;;;;9.38;8.38;;;37.00;43.20;;;;;;5012740;28;20045;-39
2023/10/01 14:33:39;;;;;;;11.05;8.82;;;35.30;44.70;;;;;;5012024;28;20065;-39
2023/10/01 14:36:10;;;;;;;9.38;8.35;;;34.00;45.80;;;;;;5019326;28;20045;-43
2023/10/01 14:38:40;;;;;;;10.38;8.80;;;34.90;45.80;;;;;;5012692;28;20058;-39
2023/10/01 14:41:10;;;;;;;10.00;8.52;;;35.40;45.20;;;;;;5019523;28;20046;-41